sensor_id;sensor_type;location;lat;lon;timestamp;temperature;humidity
15900;DHT22;8048;50.644;6.184;2022-10-18T00:00:56;15.30;99.90
15900;DHT22;8048;50.644;6.184;2022-10-18T00:03:21;15.40;99.90
15900;DHT22;8048;50.644;6.184;2022-10-18T00:05:48;15.30;99.90
15900;DHT22;8048;50.644;6.184;2022-10-18T00:08:14;15.30;99.90
15900;DHT22;8048;50.644;6.184;2022-10-18T00:10:40;15.30;99.90
15900;DHT22;8048;50.644;6.184;2022-10-18T00:13:06;15.30;99.90
15900;DHT22;8048;50.644;6.184;2022-10-18T00:15:31;15.30;99.90
15900;DHT22;8048;50.644;6.184;2022-10-18T00:17:57;15.20;99.90
15900;DHT22;8048;50.644;6.184;2022-10-18T00:20:22;15.30;99.90
15900;DHT22;8048;50.644;6.184;2022-10-18T00:22:48;15.20;99.90
15900;DHT22;8048;50.644;6.184;2022-10-18T00:25:14;15.20;99.90
15900;DHT22;8048;50.644;6.184;2022-10-18T00:27:39;15.20;99.90
15900;DHT22;8048;50.644;6.184;2022-10-18T00:30:05;15.20;99.90
15900;DHT22;8048;50.644;6.184;2022-10-18T00:32:36;15.20;99.90
15900;DHT22;8048;50.644;6.184;2022-10-18T00:35:02;15.20;99.90
15900;DHT22;8048;50.644;6.184;2022-10-18T00:37:28;15.20;99.90
15900;DHT22;8048;50.644;6.184;2022-10-18T00:39:53;15.20;99.90
15900;DHT22;8048;50.644;6.184;2022-10-18T00:42:20;15.20;99.90
15900;DHT22;8048;50.644;6.184;2022-10-18T00:47:16;15.20;99.90
15900;DHT22;8048;50.644;6.184;2022-10-18T00:49:50;15.20;99.90
15900;DHT22;8048;50.644;6.184;2022-10-18T00:52:31;15.20;99.90
15900;DHT22;8048;50.644;6.184;2022-10-18T00:54:58;15.10;99.90
15900;DHT22;8048;50.644;6.184;2022-10-18T00:57:24;15.10;99.90
15900;DHT22;8048;50.644;6.184;2022-10-18T00:59:50;15.10;99.90
15900;DHT22;8048;50.644;6.184;2022-10-18T01:02:16;15.10;99.90
15900;DHT22;8048;50.644;6.184;2022-10-18T01:04:46;15.10;99.90
15900;DHT22;8048;50.644;6.184;2022-10-18T01:10:09;15.10;99.90
15900;DHT22;8048;50.644;6.184;2022-10-18T01:12:54;15.10;99.90
15900;DHT22;8048;50.644;6.184;2022-10-18T01:18:26;15.10;99.90
15900;DHT22;8048;50.644;6.184;2022-10-18T01:26:46;15.10;99.90
15900;DHT22;8048;50.644;6.184;2022-10-18T01:31:46;15.10;99.90
15900;DHT22;8048;50.644;6.184;2022-10-18T01:34:16;15.10;99.90
15900;DHT22;8048;50.644;6.184;2022-10-18T01:36:46;15.10;99.90
15900;DHT22;8048;50.644;6.184;2022-10-18T01:39:15;15.10;99.90
15900;DHT22;8048;50.644;6.184;2022-10-18T01:41:43;15.10;99.90
15900;DHT22;8048;50.644;6.184;2022-10-18T01:44:13;15.10;99.90
15900;DHT22;8048;50.644;6.184;2022-10-18T01:46:41;15.10;99.90
15900;DHT22;8048;50.644;6.184;2022-10-18T01:49:08;15.10;99.90
15900;DHT22;8048;50.644;6.184;2022-10-18T01:51:33;15.10;99.90
15900;DHT22;8048;50.644;6.184;2022-10-18T01:54:00;15.10;99.90
15900;DHT22;8048;50.644;6.184;2022-10-18T01:56:37;15.10;99.90
15900;DHT22;8048;50.644;6.184;2022-10-18T02:05:12;15.10;99.90
15900;DHT22;8048;50.644;6.184;2022-10-18T02:07:57;15.10;99.90
15900;DHT22;8048;50.644;6.184;2022-10-18T02:12:56;15.10;99.90
15900;DHT22;8048;50.644;6.184;2022-10-18T02:15:27;15.10;99.90
15900;DHT22;8048;50.644;6.184;2022-10-18T02:17:55;15.10;99.90
15900;DHT22;8048;50.644;6.184;2022-10-18T02:20:24;15.10;99.90
15900;DHT22;8048;50.644;6.184;2022-10-18T02:22:52;15.20;99.90
15900;DHT22;8048;50.644;6.184;2022-10-18T02:25:24;15.10;99.90
15900;DHT22;8048;50.644;6.184;2022-10-18T02:27:51;15.20;99.90
15900;DHT22;8048;50.644;6.184;2022-10-18T02:30:18;15.20;99.90
15900;DHT22;8048;50.644;6.184;2022-10-18T02:32:57;15.20;99.90
15900;DHT22;8048;50.644;6.184;2022-10-18T02:35:28;15.20;99.90
15900;DHT22;8048;50.644;6.184;2022-10-18T02:37:56;15.20;99.90
15900;DHT22;8048;50.644;6.184;2022-10-18T02:40:23;15.20;99.90
15900;DHT22;8048;50.644;6.184;2022-10-18T02:42:54;15.20;99.90
15900;DHT22;8048;50.644;6.184;2022-10-18T02:45:21;15.20;99.90
15900;DHT22;8048;50.644;6.184;2022-10-18T02:47:47;15.20;99.90
15900;DHT22;8048;50.644;6.184;2022-10-18T02:50:13;15.20;99.90
15900;DHT22;8048;50.644;6.184;2022-10-18T02:52:39;15.20;99.90
15900;DHT22;8048;50.644;6.184;2022-10-18T02:55:06;15.20;99.90
15900;DHT22;8048;50.644;6.184;2022-10-18T02:57:32;15.20;99.90
15900;DHT22;8048;50.644;6.184;2022-10-18T02:59:57;15.20;99.90
15900;DHT22;8048;50.644;6.184;2022-10-18T03:02:23;15.20;99.90
15900;DHT22;8048;50.644;6.184;2022-10-18T03:04:49;15.20;99.90
15900;DHT22;8048;50.644;6.184;2022-10-18T03:07:14;15.20;99.90
15900;DHT22;8048;50.644;6.184;2022-10-18T03:09:40;15.20;99.90
15900;DHT22;8048;50.644;6.184;2022-10-18T03:12:05;15.20;99.90
15900;DHT22;8048;50.644;6.184;2022-10-18T03:14:31;15.20;99.90
15900;DHT22;8048;50.644;6.184;2022-10-18T03:16:56;15.20;99.90
15900;DHT22;8048;50.644;6.184;2022-10-18T03:19:22;15.20;99.90
15900;DHT22;8048;50.644;6.184;2022-10-18T03:21:47;15.20;99.90
15900;DHT22;8048;50.644;6.184;2022-10-18T03:24:13;15.20;99.90
15900;DHT22;8048;50.644;6.184;2022-10-18T03:26:38;15.20;99.90
15900;DHT22;8048;50.644;6.184;2022-10-18T03:29:04;15.20;99.90
15900;DHT22;8048;50.644;6.184;2022-10-18T03:31:30;15.20;99.90
15900;DHT22;8048;50.644;6.184;2022-10-18T03:33:55;15.20;99.90
15900;DHT22;8048;50.644;6.184;2022-10-18T03:36:21;15.20;99.90
15900;DHT22;8048;50.644;6.184;2022-10-18T03:38:46;15.20;99.90
15900;DHT22;8048;50.644;6.184;2022-10-18T03:41:12;15.20;99.90
15900;DHT22;8048;50.644;6.184;2022-10-18T03:43:37;15.20;99.90
15900;DHT22;8048;50.644;6.184;2022-10-18T03:46:03;15.20;99.90
15900;DHT22;8048;50.644;6.184;2022-10-18T03:48:28;15.20;99.90
15900;DHT22;8048;50.644;6.184;2022-10-18T03:50:54;15.10;99.90
15900;DHT22;8048;50.644;6.184;2022-10-18T03:53:20;15.20;99.90
15900;DHT22;8048;50.644;6.184;2022-10-18T03:55:55;15.20;99.90
15900;DHT22;8048;50.644;6.184;2022-10-18T03:58:23;15.10;99.90
15900;DHT22;8048;50.644;6.184;2022-10-18T04:00:50;15.10;99.90
15900;DHT22;8048;50.644;6.184;2022-10-18T04:03:16;15.10;99.90
15900;DHT22;8048;50.644;6.184;2022-10-18T04:05:42;15.10;99.90
15900;DHT22;8048;50.644;6.184;2022-10-18T04:08:07;15.10;99.90
15900;DHT22;8048;50.644;6.184;2022-10-18T04:10:33;15.10;99.90
15900;DHT22;8048;50.644;6.184;2022-10-18T04:12:58;15.20;99.90
15900;DHT22;8048;50.644;6.184;2022-10-18T04:15:24;15.20;99.90
15900;DHT22;8048;50.644;6.184;2022-10-18T04:17:49;15.10;99.90
15900;DHT22;8048;50.644;6.184;2022-10-18T04:20:15;15.10;99.90
15900;DHT22;8048;50.644;6.184;2022-10-18T04:22:41;15.10;99.90
15900;DHT22;8048;50.644;6.184;2022-10-18T04:25:06;15.10;99.90
15900;DHT22;8048;50.644;6.184;2022-10-18T04:27:32;15.10;99.90
15900;DHT22;8048;50.644;6.184;2022-10-18T04:29:57;15.10;99.90
15900;DHT22;8048;50.644;6.184;2022-10-18T04:32:23;15.10;99.90
15900;DHT22;8048;50.644;6.184;2022-10-18T04:34:48;15.10;99.90
15900;DHT22;8048;50.644;6.184;2022-10-18T04:37:14;15.10;99.90
15900;DHT22;8048;50.644;6.184;2022-10-18T04:39:39;15.10;99.90
15900;DHT22;8048;50.644;6.184;2022-10-18T04:42:05;15.10;99.90
15900;DHT22;8048;50.644;6.184;2022-10-18T04:44:30;15.10;99.90
15900;DHT22;8048;50.644;6.184;2022-10-18T04:46:56;15.10;99.90
15900;DHT22;8048;50.644;6.184;2022-10-18T04:49:21;15.10;99.90
15900;DHT22;8048;50.644;6.184;2022-10-18T04:51:47;15.10;99.90
15900;DHT22;8048;50.644;6.184;2022-10-18T04:54:12;15.10;99.90
15900;DHT22;8048;50.644;6.184;2022-10-18T04:56:38;15.10;99.90
15900;DHT22;8048;50.644;6.184;2022-10-18T04:59:04;15.10;99.90
15900;DHT22;8048;50.644;6.184;2022-10-18T05:01:29;15.10;99.90
15900;DHT22;8048;50.644;6.184;2022-10-18T05:03:55;15.10;99.90
15900;DHT22;8048;50.644;6.184;2022-10-18T05:06:21;15.10;99.90
15900;DHT22;8048;50.644;6.184;2022-10-18T05:08:48;15.10;99.90
15900;DHT22;8048;50.644;6.184;2022-10-18T05:11:14;15.10;99.90
15900;DHT22;8048;50.644;6.184;2022-10-18T05:13:39;15.10;99.90
15900;DHT22;8048;50.644;6.184;2022-10-18T05:16:05;15.10;99.90
15900;DHT22;8048;50.644;6.184;2022-10-18T05:18:31;15.10;99.90
15900;DHT22;8048;50.644;6.184;2022-10-18T05:20:57;15.00;99.90
15900;DHT22;8048;50.644;6.184;2022-10-18T05:23:23;15.10;99.90
15900;DHT22;8048;50.644;6.184;2022-10-18T05:25:48;15.10;99.90
15900;DHT22;8048;50.644;6.184;2022-10-18T05:28:14;15.00;99.90
15900;DHT22;8048;50.644;6.184;2022-10-18T05:30:40;15.00;99.90
15900;DHT22;8048;50.644;6.184;2022-10-18T05:33:06;15.00;99.90
15900;DHT22;8048;50.644;6.184;2022-10-18T05:35:32;15.00;99.90
15900;DHT22;8048;50.644;6.184;2022-10-18T05:38:01;15.10;99.90
15900;DHT22;8048;50.644;6.184;2022-10-18T05:40:27;15.10;99.90
15900;DHT22;8048;50.644;6.184;2022-10-18T05:42:52;15.10;99.90
15900;DHT22;8048;50.644;6.184;2022-10-18T05:45:18;15.10;99.90
15900;DHT22;8048;50.644;6.184;2022-10-18T05:47:43;15.10;99.90
15900;DHT22;8048;50.644;6.184;2022-10-18T05:50:09;15.10;99.90
15900;DHT22;8048;50.644;6.184;2022-10-18T05:52:34;15.10;99.90
15900;DHT22;8048;50.644;6.184;2022-10-18T05:55:00;15.10;99.90
15900;DHT22;8048;50.644;6.184;2022-10-18T05:57:26;15.10;99.90
15900;DHT22;8048;50.644;6.184;2022-10-18T05:59:51;15.10;99.90
15900;DHT22;8048;50.644;6.184;2022-10-18T06:02:17;15.10;99.90
15900;DHT22;8048;50.644;6.184;2022-10-18T06:04:42;15.10;99.90
15900;DHT22;8048;50.644;6.184;2022-10-18T06:07:11;15.10;99.90
15900;DHT22;8048;50.644;6.184;2022-10-18T06:09:37;15.10;99.90
15900;DHT22;8048;50.644;6.184;2022-10-18T06:12:03;15.10;99.90
15900;DHT22;8048;50.644;6.184;2022-10-18T06:14:29;15.10;99.90
15900;DHT22;8048;50.644;6.184;2022-10-18T06:16:54;15.10;99.90
15900;DHT22;8048;50.644;6.184;2022-10-18T06:19:21;15.10;99.90
15900;DHT22;8048;50.644;6.184;2022-10-18T06:21:47;15.10;99.90
15900;DHT22;8048;50.644;6.184;2022-10-18T06:24:13;15.10;99.90
15900;DHT22;8048;50.644;6.184;2022-10-18T06:26:38;15.10;99.90
15900;DHT22;8048;50.644;6.184;2022-10-18T06:29:04;15.10;99.90
15900;DHT22;8048;50.644;6.184;2022-10-18T06:31:29;15.10;99.90
15900;DHT22;8048;50.644;6.184;2022-10-18T06:33:55;15.10;99.90
15900;DHT22;8048;50.644;6.184;2022-10-18T06:36:25;15.10;99.90
15900;DHT22;8048;50.644;6.184;2022-10-18T06:38:51;15.10;99.90
15900;DHT22;8048;50.644;6.184;2022-10-18T06:41:17;15.10;99.90
15900;DHT22;8048;50.644;6.184;2022-10-18T06:43:50;15.10;99.90
15900;DHT22;8048;50.644;6.184;2022-10-18T06:46:18;15.10;99.90
15900;DHT22;8048;50.644;6.184;2022-10-18T06:48:43;15.10;99.90
15900;DHT22;8048;50.644;6.184;2022-10-18T06:51:09;15.10;99.90
15900;DHT22;8048;50.644;6.184;2022-10-18T06:53:37;15.20;99.90
15900;DHT22;8048;50.644;6.184;2022-10-18T06:56:12;15.10;99.90
15900;DHT22;8048;50.644;6.184;2022-10-18T06:58:38;15.10;99.90
15900;DHT22;8048;50.644;6.184;2022-10-18T07:01:09;15.10;99.90
15900;DHT22;8048;50.644;6.184;2022-10-18T07:03:36;15.10;99.90
15900;DHT22;8048;50.644;6.184;2022-10-18T07:06:03;15.20;99.90
15900;DHT22;8048;50.644;6.184;2022-10-18T07:08:29;15.20;99.90
15900;DHT22;8048;50.644;6.184;2022-10-18T07:10:55;15.20;99.90
15900;DHT22;8048;50.644;6.184;2022-10-18T07:13:21;15.20;99.90
15900;DHT22;8048;50.644;6.184;2022-10-18T07:15:47;15.20;99.90
15900;DHT22;8048;50.644;6.184;2022-10-18T07:18:12;15.20;99.90
15900;DHT22;8048;50.644;6.184;2022-10-18T07:20:38;15.20;99.90
15900;DHT22;8048;50.644;6.184;2022-10-18T07:23:03;15.20;99.90
15900;DHT22;8048;50.644;6.184;2022-10-18T07:25:33;15.20;99.90
15900;DHT22;8048;50.644;6.184;2022-10-18T07:27:59;15.20;99.90
15900;DHT22;8048;50.644;6.184;2022-10-18T07:30:24;15.20;99.90
15900;DHT22;8048;50.644;6.184;2022-10-18T07:32:50;15.30;99.90
15900;DHT22;8048;50.644;6.184;2022-10-18T07:35:16;15.30;99.90
15900;DHT22;8048;50.644;6.184;2022-10-18T07:37:42;15.30;99.90
15900;DHT22;8048;50.644;6.184;2022-10-18T07:40:08;15.30;99.90
15900;DHT22;8048;50.644;6.184;2022-10-18T07:42:34;15.30;99.90
15900;DHT22;8048;50.644;6.184;2022-10-18T07:45:00;15.30;99.90
15900;DHT22;8048;50.644;6.184;2022-10-18T07:47:25;15.30;99.90
15900;DHT22;8048;50.644;6.184;2022-10-18T07:49:51;15.30;99.90
15900;DHT22;8048;50.644;6.184;2022-10-18T07:52:16;15.30;99.90
15900;DHT22;8048;50.644;6.184;2022-10-18T07:54:42;15.30;99.90
15900;DHT22;8048;50.644;6.184;2022-10-18T07:57:07;15.30;99.90
15900;DHT22;8048;50.644;6.184;2022-10-18T07:59:33;15.30;99.90
15900;DHT22;8048;50.644;6.184;2022-10-18T08:01:58;15.30;99.90
15900;DHT22;8048;50.644;6.184;2022-10-18T08:04:24;15.40;99.90
15900;DHT22;8048;50.644;6.184;2022-10-18T08:06:49;15.40;99.90
15900;DHT22;8048;50.644;6.184;2022-10-18T08:09:15;15.40;99.90
15900;DHT22;8048;50.644;6.184;2022-10-18T08:11:40;15.30;99.90
15900;DHT22;8048;50.644;6.184;2022-10-18T08:14:06;15.30;99.90
15900;DHT22;8048;50.644;6.184;2022-10-18T08:16:32;15.40;99.90
15900;DHT22;8048;50.644;6.184;2022-10-18T08:18:57;15.40;99.90
15900;DHT22;8048;50.644;6.184;2022-10-18T08:21:24;15.40;99.90
15900;DHT22;8048;50.644;6.184;2022-10-18T08:23:50;15.50;99.90
15900;DHT22;8048;50.644;6.184;2022-10-18T08:26:17;15.50;99.90
15900;DHT22;8048;50.644;6.184;2022-10-18T08:28:44;15.60;99.90
15900;DHT22;8048;50.644;6.184;2022-10-18T08:31:11;15.70;99.90
15900;DHT22;8048;50.644;6.184;2022-10-18T08:33:38;15.80;99.90
15900;DHT22;8048;50.644;6.184;2022-10-18T08:36:05;15.80;99.90
15900;DHT22;8048;50.644;6.184;2022-10-18T08:38:36;15.90;99.90
15900;DHT22;8048;50.644;6.184;2022-10-18T08:44:12;15.90;99.90
15900;DHT22;8048;50.644;6.184;2022-10-18T08:46:45;15.80;99.90
15900;DHT22;8048;50.644;6.184;2022-10-18T08:49:21;15.90;99.90
15900;DHT22;8048;50.644;6.184;2022-10-18T08:51:50;16.00;99.90
15900;DHT22;8048;50.644;6.184;2022-10-18T08:54:28;16.00;99.90
15900;DHT22;8048;50.644;6.184;2022-10-18T08:56:59;16.10;99.90
15900;DHT22;8048;50.644;6.184;2022-10-18T08:59:37;16.10;99.90
15900;DHT22;8048;50.644;6.184;2022-10-18T09:02:31;16.10;99.90
15900;DHT22;8048;50.644;6.184;2022-10-18T09:11:12;16.10;99.90
15900;DHT22;8048;50.644;6.184;2022-10-18T09:14:19;16.00;99.90
15900;DHT22;8048;50.644;6.184;2022-10-18T09:17:14;16.00;99.90
15900;DHT22;8048;50.644;6.184;2022-10-18T09:25:14;15.90;99.90
15900;DHT22;8048;50.644;6.184;2022-10-18T09:27:50;15.90;99.90
15900;DHT22;8048;50.644;6.184;2022-10-18T09:30:43;16.00;99.90
15900;DHT22;8048;50.644;6.184;2022-10-18T09:33:23;16.00;99.90
15900;DHT22;8048;50.644;6.184;2022-10-18T09:36:03;16.00;99.90
15900;DHT22;8048;50.644;6.184;2022-10-18T09:38:40;15.90;99.90
15900;DHT22;8048;50.644;6.184;2022-10-18T09:41:12;16.00;99.90
15900;DHT22;8048;50.644;6.184;2022-10-18T09:44:03;16.00;99.90
15900;DHT22;8048;50.644;6.184;2022-10-18T09:46:35;16.00;99.90
15900;DHT22;8048;50.644;6.184;2022-10-18T09:49:06;16.10;99.90
15900;DHT22;8048;50.644;6.184;2022-10-18T09:51:37;16.10;99.90
15900;DHT22;8048;50.644;6.184;2022-10-18T09:54:23;16.20;99.90
15900;DHT22;8048;50.644;6.184;2022-10-18T09:57:26;16.20;99.90
15900;DHT22;8048;50.644;6.184;2022-10-18T09:59:53;16.20;99.90
15900;DHT22;8048;50.644;6.184;2022-10-18T10:02:21;16.30;99.90
15900;DHT22;8048;50.644;6.184;2022-10-18T10:04:51;16.30;99.90
15900;DHT22;8048;50.644;6.184;2022-10-18T10:07:32;16.30;99.90
15900;DHT22;8048;50.644;6.184;2022-10-18T10:12:39;16.30;99.90
15900;DHT22;8048;50.644;6.184;2022-10-18T10:15:20;16.30;99.90
15900;DHT22;8048;50.644;6.184;2022-10-18T10:17:55;16.30;99.90
15900;DHT22;8048;50.644;6.184;2022-10-18T10:20:32;16.30;99.90
15900;DHT22;8048;50.644;6.184;2022-10-18T10:23:25;16.30;99.90
15900;DHT22;8048;50.644;6.184;2022-10-18T10:25:54;16.30;99.90
15900;DHT22;8048;50.644;6.184;2022-10-18T10:28:37;16.40;99.90
15900;DHT22;8048;50.644;6.184;2022-10-18T10:34:05;16.40;99.90
15900;DHT22;8048;50.644;6.184;2022-10-18T10:36:49;16.30;99.90
15900;DHT22;8048;50.644;6.184;2022-10-18T10:39:17;16.30;99.90
15900;DHT22;8048;50.644;6.184;2022-10-18T10:41:52;16.30;99.90
15900;DHT22;8048;50.644;6.184;2022-10-18T10:44:38;16.40;99.90
15900;DHT22;8048;50.644;6.184;2022-10-18T10:47:27;16.40;99.90
15900;DHT22;8048;50.644;6.184;2022-10-18T10:49:55;16.50;99.90
15900;DHT22;8048;50.644;6.184;2022-10-18T10:52:23;16.60;99.90
15900;DHT22;8048;50.644;6.184;2022-10-18T10:54:52;16.70;99.90
15900;DHT22;8048;50.644;6.184;2022-10-18T10:57:23;16.70;99.90
15900;DHT22;8048;50.644;6.184;2022-10-18T10:59:52;16.70;99.90
15900;DHT22;8048;50.644;6.184;2022-10-18T11:02:32;16.80;99.90
15900;DHT22;8048;50.644;6.184;2022-10-18T11:05:24;16.90;99.90
15900;DHT22;8048;50.644;6.184;2022-10-18T11:07:53;17.00;99.90
15900;DHT22;8048;50.644;6.184;2022-10-18T11:10:27;17.10;99.90
15900;DHT22;8048;50.644;6.184;2022-10-18T11:13:30;17.30;99.90
15900;DHT22;8048;50.644;6.184;2022-10-18T11:16:03;17.30;99.90
15900;DHT22;8048;50.644;6.184;2022-10-18T11:18:36;17.40;99.90
15900;DHT22;8048;50.644;6.184;2022-10-18T11:21:21;17.60;99.90
15900;DHT22;8048;50.644;6.184;2022-10-18T11:23:47;17.70;99.90
15900;DHT22;8048;50.644;6.184;2022-10-18T11:26:40;17.60;99.90
15900;DHT22;8048;50.644;6.184;2022-10-18T11:29:20;17.60;99.90
15900;DHT22;8048;50.644;6.184;2022-10-18T11:32:18;17.60;99.90
15900;DHT22;8048;50.644;6.184;2022-10-18T11:35:07;17.60;99.90
15900;DHT22;8048;50.644;6.184;2022-10-18T11:59:36;19.00;99.90
15900;DHT22;8048;50.644;6.184;2022-10-18T12:02:42;19.40;99.90
15900;DHT22;8048;50.644;6.184;2022-10-18T12:05:11;19.40;99.90
15900;DHT22;8048;50.644;6.184;2022-10-18T12:07:42;19.30;99.90
15900;DHT22;8048;50.644;6.184;2022-10-18T12:10:12;19.00;99.90
15900;DHT22;8048;50.644;6.184;2022-10-18T12:12:47;18.90;99.90
15900;DHT22;8048;50.644;6.184;2022-10-18T12:15:21;18.70;99.90
15900;DHT22;8048;50.644;6.184;2022-10-18T12:17:53;18.60;99.90
15900;DHT22;8048;50.644;6.184;2022-10-18T12:20:39;19.00;99.90
15900;DHT22;8048;50.644;6.184;2022-10-18T12:23:13;19.90;99.90
15900;DHT22;8048;50.644;6.184;2022-10-18T12:25:44;21.00;99.90
15900;DHT22;8048;50.644;6.184;2022-10-18T12:30:59;22.70;99.00
15900;DHT22;8048;50.644;6.184;2022-10-18T12:33:36;23.50;98.90
15900;DHT22;8048;50.644;6.184;2022-10-18T12:39:05;24.60;95.20
15900;DHT22;8048;50.644;6.184;2022-10-18T12:41:33;24.70;95.50
15900;DHT22;8048;50.644;6.184;2022-10-18T12:44:02;25.00;94.50
15900;DHT22;8048;50.644;6.184;2022-10-18T12:49:12;24.20;94.60
15900;DHT22;8048;50.644;6.184;2022-10-18T12:51:57;23.80;93.70
15900;DHT22;8048;50.644;6.184;2022-10-18T12:54:37;23.30;93.50
15900;DHT22;8048;50.644;6.184;2022-10-18T12:57:04;22.90;94.80
15900;DHT22;8048;50.644;6.184;2022-10-18T13:07:18;22.60;96.40
15900;DHT22;8048;50.644;6.184;2022-10-18T13:18:54;25.10;93.30
15900;DHT22;8048;50.644;6.184;2022-10-18T13:21:28;25.10;90.10
15900;DHT22;8048;50.644;6.184;2022-10-18T13:24:08;25.10;92.20
15900;DHT22;8048;50.644;6.184;2022-10-18T13:27:19;25.50;90.50
15900;DHT22;8048;50.644;6.184;2022-10-18T13:29:42;25.70;91.00
15900;DHT22;8048;50.644;6.184;2022-10-18T13:35:40;26.50;90.90
15900;DHT22;8048;50.644;6.184;2022-10-18T13:41:19;27.50;90.00
15900;DHT22;8048;50.644;6.184;2022-10-18T13:44:07;27.80;92.00
15900;DHT22;8048;50.644;6.184;2022-10-18T14:00:31;26.70;90.30
15900;DHT22;8048;50.644;6.184;2022-10-18T14:03:23;26.50;91.80
15900;DHT22;8048;50.644;6.184;2022-10-18T14:13:57;25.40;91.70
15900;DHT22;8048;50.644;6.184;2022-10-18T14:21:57;26.00;90.60
15900;DHT22;8048;50.644;6.184;2022-10-18T14:24:28;26.20;91.50
15900;DHT22;8048;50.644;6.184;2022-10-18T14:27:30;26.30;89.20
15900;DHT22;8048;50.644;6.184;2022-10-18T14:30:15;26.50;91.50
15900;DHT22;8048;50.644;6.184;2022-10-18T14:32:49;26.50;91.00
15900;DHT22;8048;50.644;6.184;2022-10-18T14:35:24;26.50;90.20
15900;DHT22;8048;50.644;6.184;2022-10-18T14:37:52;26.50;91.30
15900;DHT22;8048;50.644;6.184;2022-10-18T14:40:33;26.20;85.90
15900;DHT22;8048;50.644;6.184;2022-10-18T14:43:13;25.70;87.30
15900;DHT22;8048;50.644;6.184;2022-10-18T14:45:40;25.30;88.90
15900;DHT22;8048;50.644;6.184;2022-10-18T14:48:14;24.80;89.50
15900;DHT22;8048;50.644;6.184;2022-10-18T14:50:42;24.40;90.60
15900;DHT22;8048;50.644;6.184;2022-10-18T14:53:15;24.00;91.10
15900;DHT22;8048;50.644;6.184;2022-10-18T14:55:42;23.60;91.10
15900;DHT22;8048;50.644;6.184;2022-10-18T14:58:17;23.30;91.90
15900;DHT22;8048;50.644;6.184;2022-10-18T15:00:45;23.10;92.30
15900;DHT22;8048;50.644;6.184;2022-10-18T15:03:13;22.80;92.60
15900;DHT22;8048;50.644;6.184;2022-10-18T15:06:01;22.40;93.50
15900;DHT22;8048;50.644;6.184;2022-10-18T15:08:40;22.20;94.30
15900;DHT22;8048;50.644;6.184;2022-10-18T15:11:07;22.10;94.30
15900;DHT22;8048;50.644;6.184;2022-10-18T15:13:35;21.90;94.90
15900;DHT22;8048;50.644;6.184;2022-10-18T15:16:03;21.70;95.20
15900;DHT22;8048;50.644;6.184;2022-10-18T15:18:29;21.60;96.20
15900;DHT22;8048;50.644;6.184;2022-10-18T15:21:23;21.40;95.00
15900;DHT22;8048;50.644;6.184;2022-10-18T15:23:50;21.20;95.60
15900;DHT22;8048;50.644;6.184;2022-10-18T15:26:25;21.10;96.50
15900;DHT22;8048;50.644;6.184;2022-10-18T15:28:56;21.10;96.90
15900;DHT22;8048;50.644;6.184;2022-10-18T15:31:29;21.10;96.10
15900;DHT22;8048;50.644;6.184;2022-10-18T15:34:17;21.00;95.80
15900;DHT22;8048;50.644;6.184;2022-10-18T15:36:43;20.70;95.30
15900;DHT22;8048;50.644;6.184;2022-10-18T15:44:35;20.40;95.70
15900;DHT22;8048;50.644;6.184;2022-10-18T15:49:47;20.10;96.60
15900;DHT22;8048;50.644;6.184;2022-10-18T15:52:28;20.10;96.50
15900;DHT22;8048;50.644;6.184;2022-10-18T15:54:54;19.90;96.80
15900;DHT22;8048;50.644;6.184;2022-10-18T15:57:20;19.80;97.10
15900;DHT22;8048;50.644;6.184;2022-10-18T16:00:00;19.70;97.20
15900;DHT22;8048;50.644;6.184;2022-10-18T16:02:28;19.50;97.10
15900;DHT22;8048;50.644;6.184;2022-10-18T16:04:54;19.40;97.60
15900;DHT22;8048;50.644;6.184;2022-10-18T16:07:19;19.40;97.70
15900;DHT22;8048;50.644;6.184;2022-10-18T16:09:45;19.20;98.20
15900;DHT22;8048;50.644;6.184;2022-10-18T16:12:10;19.20;98.50
15900;DHT22;8048;50.644;6.184;2022-10-18T16:14:36;19.00;99.00
15900;DHT22;8048;50.644;6.184;2022-10-18T16:17:04;18.90;99.30
15900;DHT22;8048;50.644;6.184;2022-10-18T16:19:31;18.80;99.40
15900;DHT22;8048;50.644;6.184;2022-10-18T16:21:57;18.70;99.90
15900;DHT22;8048;50.644;6.184;2022-10-18T16:24:23;18.60;99.90
15900;DHT22;8048;50.644;6.184;2022-10-18T16:26:49;18.50;99.90
15900;DHT22;8048;50.644;6.184;2022-10-18T16:29:17;18.40;99.90
15900;DHT22;8048;50.644;6.184;2022-10-18T16:31:46;18.30;99.90
15900;DHT22;8048;50.644;6.184;2022-10-18T16:34:12;18.40;99.90
15900;DHT22;8048;50.644;6.184;2022-10-18T16:36:39;18.20;99.90
15900;DHT22;8048;50.644;6.184;2022-10-18T16:39:09;18.10;99.90
15900;DHT22;8048;50.644;6.184;2022-10-18T16:41:37;18.00;99.90
15900;DHT22;8048;50.644;6.184;2022-10-18T16:44:02;18.00;99.90
15900;DHT22;8048;50.644;6.184;2022-10-18T16:46:30;17.90;99.90
15900;DHT22;8048;50.644;6.184;2022-10-18T16:48:57;17.80;99.90
15900;DHT22;8048;50.644;6.184;2022-10-18T16:51:23;17.70;99.90
15900;DHT22;8048;50.644;6.184;2022-10-18T16:53:48;17.70;99.90
15900;DHT22;8048;50.644;6.184;2022-10-18T16:56:17;17.60;99.90
15900;DHT22;8048;50.644;6.184;2022-10-18T16:58:44;17.60;99.90
15900;DHT22;8048;50.644;6.184;2022-10-18T17:01:11;17.50;99.90
15900;DHT22;8048;50.644;6.184;2022-10-18T17:03:37;17.50;99.90
15900;DHT22;8048;50.644;6.184;2022-10-18T17:06:03;17.30;99.90
15900;DHT22;8048;50.644;6.184;2022-10-18T17:08:28;17.30;99.90
15900;DHT22;8048;50.644;6.184;2022-10-18T17:10:56;17.20;99.90
15900;DHT22;8048;50.644;6.184;2022-10-18T17:13:24;17.20;99.90
15900;DHT22;8048;50.644;6.184;2022-10-18T17:15:50;17.10;99.90
15900;DHT22;8048;50.644;6.184;2022-10-18T17:18:20;17.10;99.90
15900;DHT22;8048;50.644;6.184;2022-10-18T17:20:46;17.00;99.90
15900;DHT22;8048;50.644;6.184;2022-10-18T17:23:12;17.00;99.90
15900;DHT22;8048;50.644;6.184;2022-10-18T17:25:39;17.00;99.90
15900;DHT22;8048;50.644;6.184;2022-10-18T17:28:06;16.90;99.90
15900;DHT22;8048;50.644;6.184;2022-10-18T17:30:32;16.80;99.90
15900;DHT22;8048;50.644;6.184;2022-10-18T17:32:58;16.80;99.90
15900;DHT22;8048;50.644;6.184;2022-10-18T17:35:23;16.70;99.90
15900;DHT22;8048;50.644;6.184;2022-10-18T17:37:50;16.70;99.90
15900;DHT22;8048;50.644;6.184;2022-10-18T17:40:16;16.60;99.90
15900;DHT22;8048;50.644;6.184;2022-10-18T17:42:42;16.50;99.90
15900;DHT22;8048;50.644;6.184;2022-10-18T17:45:08;16.40;99.90
15900;DHT22;8048;50.644;6.184;2022-10-18T17:47:33;16.20;99.90
15900;DHT22;8048;50.644;6.184;2022-10-18T17:49:59;16.20;99.90
15900;DHT22;8048;50.644;6.184;2022-10-18T17:52:24;16.10;99.90
15900;DHT22;8048;50.644;6.184;2022-10-18T17:54:50;16.00;99.90
15900;DHT22;8048;50.644;6.184;2022-10-18T17:57:16;15.90;99.90
15900;DHT22;8048;50.644;6.184;2022-10-18T17:59:41;15.80;99.90
15900;DHT22;8048;50.644;6.184;2022-10-18T18:02:09;15.70;99.90
15900;DHT22;8048;50.644;6.184;2022-10-18T18:04:35;15.70;99.90
15900;DHT22;8048;50.644;6.184;2022-10-18T18:07:01;15.60;99.90
15900;DHT22;8048;50.644;6.184;2022-10-18T18:09:29;15.50;99.90
15900;DHT22;8048;50.644;6.184;2022-10-18T18:11:55;15.40;99.90
15900;DHT22;8048;50.644;6.184;2022-10-18T18:14:21;15.30;99.90
15900;DHT22;8048;50.644;6.184;2022-10-18T18:16:47;15.20;99.90